Time;durP1;ratioP1;P1;durP2;ratioP2;P2;SDS_P1;SDS_P2;PMS_P1;PMS_P2;Temp;Humidity;BMP_temperature;BMP_pressure;BME280_temperature;BME280_humidity;BME280_pressure;Samples;Min_cycle;Max_cycle;Signal;HPM_P1;HPM_P2
2024/03/12 00:00:16;;;;;;;5.00;3.93;;;;;;;9.05;61.53;95738.44;4986317;28;20424;-71
2024/03/12 00:02:45;;;;;;;4.60;3.60;;;;;;;9.06;61.61;95740.09;4986353;28;20423;-70
2024/03/12 00:05:13;;;;;;;4.30;3.90;;;;;;;8.99;61.28;95743.94;4985736;28;20515;-70
2024/03/12 00:07:39;;;;;;;3.97;3.57;;;;;;;8.94;61.30;95750.34;4985928;28;20460;-71
2024/03/12 00:10:05;;;;;;;3.90;3.53;;;;;;;8.93;61.64;95749.50;4985989;28;20426;-70
2024/03/12 00:12:31;;;;;;;3.70;3.23;;;;;;;8.77;62.27;95751.97;4985867;28;20794;-71
2024/03/12 00:14:57;;;;;;;4.47;3.53;;;;;;;8.91;62.05;95746.09;4985784;28;20447;-71
2024/03/12 00:17:24;;;;;;;3.87;3.20;;;;;;;8.80;61.48;95745.75;4986218;28;20177;-72
2024/03/12 00:19:52;;;;;;;3.53;3.13;;;;;;;8.61;62.81;95757.06;4985541;28;20183;-71
2024/03/12 00:22:17;;;;;;;3.37;3.07;;;;;;;8.72;62.36;95756.59;4985955;28;20419;-70
2024/03/12 00:24:44;;;;;;;4.77;4.07;;;;;;;8.65;62.71;95756.00;4986279;28;21241;-71
2024/03/12 00:27:10;;;;;;;4.63;3.77;;;;;;;8.67;62.21;95753.34;4984763;28;20263;-70
2024/03/12 00:29:35;;;;;;;4.87;3.67;;;;;;;8.68;61.96;95750.63;4989210;28;20939;-71
2024/03/12 00:32:01;;;;;;;4.60;3.50;;;;;;;8.73;62.53;95757.44;4989570;28;20181;-72
2024/03/12 00:34:26;;;;;;;4.17;3.40;;;;;;;8.69;62.68;95761.94;4989497;28;20169;-72
2024/03/12 00:36:52;;;;;;;3.60;3.30;;;;;;;8.65;62.22;95761.25;4989597;28;20268;-70
2024/03/12 00:39:21;;;;;;;4.17;3.47;;;;;;;8.70;61.76;95761.03;4989400;28;20183;-72
2024/03/12 00:41:48;;;;;;;4.10;3.70;;;;;;;8.63;61.94;95772.69;4988996;28;20515;-71
2024/03/12 00:44:13;;;;;;;5.57;3.20;;;;;;;8.66;62.20;95767.31;4989329;28;20408;-71
2024/03/12 00:46:38;;;;;;;6.03;3.73;;;;;;;8.60;61.84;95770.25;4988993;28;20490;-70
2024/03/12 00:49:05;;;;;;;4.70;3.70;;;;;;;8.63;61.92;95772.69;4971154;28;20356;-71
2024/03/12 00:51:31;;;;;;;5.00;3.57;;;;;;;8.69;62.37;95773.28;4971245;28;20172;-70
2024/03/12 00:53:56;;;;;;;3.23;2.93;;;;;;;8.65;62.44;95783.94;4988869;28;20415;-71
2024/03/12 00:56:22;;;;;;;3.90;3.50;;;;;;;8.67;62.06;95775.09;4988961;28;20439;-71
2024/03/12 00:58:47;;;;;;;4.03;3.63;;;;;;;8.65;61.94;95782.19;4989148;28;20177;-71
2024/03/12 01:01:14;;;;;;;3.67;3.37;;;;;;;8.60;62.70;95783.31;4988736;28;20256;-70
2024/03/12 01:03:42;;;;;;;3.63;3.27;;;;;;;8.61;62.36;95785.00;4989117;28;20183;-69
2024/03/12 01:06:11;;;;;;;5.77;3.67;;;;;;;8.50;62.19;95782.84;4988801;28;20452;-71
2024/03/12 01:08:37;;;;;;;5.80;3.60;;;;;;;8.42;62.61;95791.06;4989169;28;20498;-70
2024/03/12 01:11:03;;;;;;;4.97;3.90;;;;;;;8.41;63.03;95794.59;4988545;28;20451;-73
2024/03/12 01:13:29;;;;;;;4.00;3.70;;;;;;;8.42;62.26;95804.13;4988469;28;20511;-72
2024/03/12 01:15:55;;;;;;;5.00;4.50;;;;;;;8.41;62.40;95804.19;4988404;28;20900;-71
2024/03/12 01:18:20;;;;;;;9.37;4.33;;;;;;;8.35;63.12;95805.28;4988253;28;20408;-71
2024/03/12 01:20:46;;;;;;;7.27;4.60;;;;;;;8.37;62.84;95800.84;4988081;28;20165;-70
2024/03/12 01:23:13;;;;;;;5.77;3.63;;;;;;;8.32;63.54;95808.06;4988101;28;20239;-71
2024/03/12 01:25:41;;;;;;;5.60;4.60;;;;;;;8.33;63.53;95806.28;4988403;28;20212;-70
2024/03/12 01:28:10;;;;;;;6.67;5.10;;;;;;;8.31;62.97;95806.34;4970657;28;20631;-71
2024/03/12 01:30:36;;;;;;;4.27;3.87;;;;;;;8.26;63.16;95805.69;4988402;28;20970;-71
2024/03/12 01:33:05;;;;;;;4.10;3.70;;;;;;;8.14;63.09;95801.88;4988205;28;20420;-71
2024/03/12 01:35:31;;;;;;;5.67;4.67;;;;;;;8.23;62.59;95809.31;4988238;28;20456;-69
2024/03/12 01:37:59;;;;;;;4.50;3.90;;;;;;;8.09;63.94;95816.06;4990021;28;20416;-71
2024/03/12 01:40:26;;;;;;;4.77;4.33;;;;;;;8.02;64.09;95812.84;4995932;28;20180;-71
2024/03/12 01:43:01;;;;;;;4.80;4.40;;;;;;;8.04;64.28;95813.63;4996242;28;20595;-71
2024/03/12 01:45:27;;;;;;;5.67;4.57;;;;;;;8.02;63.46;95824.16;4994257;28;20446;-71
2024/03/12 01:47:56;;;;;;;5.30;4.40;;;;;;;7.85;63.95;95822.25;4989844;28;21001;-68
2024/03/12 01:50:24;;;;;;;4.90;4.40;;;;;;;7.89;64.23;95833.44;4988113;28;20461;-69
2024/03/12 01:52:53;;;;;;;5.70;5.10;;;;;;;7.89;64.25;95830.84;4987887;28;20416;-71
2024/03/12 01:55:19;;;;;;;6.53;5.40;;;;;;;7.71;65.07;95829.81;4987947;28;20435;-70
2024/03/12 01:57:45;;;;;;;6.90;5.50;;;;;;;7.60;65.56;95837.25;4988264;28;20895;-71
2024/03/12 02:00:14;;;;;;;6.10;4.87;;;;;;;7.89;64.40;95837.78;4987963;28;20177;-70
2024/03/12 02:02:45;;;;;;;6.17;5.20;;;;;;;7.82;64.83;95832.00;4987865;28;20440;-71
2024/03/12 02:05:11;;;;;;;6.00;4.80;;;;;;;7.66;64.82;95837.00;4987529;28;20443;-70
2024/03/12 02:07:46;;;;;;;5.33;4.70;;;;;;;7.61;64.81;95838.97;4987501;28;20967;-70
2024/03/12 02:10:16;;;;;;;5.67;5.17;;;;;;;7.47;65.38;95841.31;4987597;28;20419;-71
2024/03/12 02:12:45;;;;;;;6.00;4.53;;;;;;;7.57;65.40;95840.00;4987335;28;20412;-72
2024/03/12 02:15:13;;;;;;;4.70;4.07;;;;;;;7.72;64.96;95852.41;4987479;28;20466;-70
2024/03/12 02:17:42;;;;;;;5.77;4.07;;;;;;;7.82;64.28;95858.13;4987600;28;20412;-71
2024/03/12 02:20:09;;;;;;;5.37;4.20;;;;;;;7.87;64.06;95856.16;4987673;28;20428;-71
2024/03/12 02:22:35;;;;;;;5.30;4.10;;;;;;;7.80;64.78;95858.19;4987210;28;20439;-71
2024/03/12 02:25:03;;;;;;;5.10;4.67;;;;;;;7.74;64.38;95854.97;4987394;28;20436;-70
2024/03/12 02:27:29;;;;;;;4.37;3.87;;;;;;;7.77;63.85;95853.09;4987671;28;20455;-71
2024/03/12 02:29:55;;;;;;;5.27;4.23;;;;;;;7.86;63.57;95857.06;4988190;28;20420;-69
2024/03/12 02:32:22;;;;;;;4.50;4.10;;;;;;;7.83;63.59;95859.81;4988787;28;20420;-71
2024/03/12 02:34:49;;;;;;;4.40;4.00;;;;;;;7.69;64.13;95854.31;4979320;28;20227;-70
2024/03/12 02:37:14;;;;;;;5.83;4.23;;;;;;;7.70;64.83;95867.31;5005555;28;20412;-71
2024/03/12 02:39:40;;;;;;;5.00;4.50;;;;;;;7.73;64.06;95863.72;5008303;28;20470;-71
2024/03/12 02:42:08;;;;;;;5.77;4.30;;;;;;;7.72;64.49;95867.22;4997923;28;20177;-71
2024/03/12 02:44:34;;;;;;;5.20;4.30;;;;;;;7.52;64.57;95871.50;4995800;28;20181;-71
2024/03/12 02:47:00;;;;;;;5.53;4.77;;;;;;;7.60;64.92;95871.19;4991869;28;20764;-70
2024/03/12 02:49:25;;;;;;;6.00;4.77;;;;;;;7.58;64.46;95880.84;4989544;28;20426;-70
2024/03/12 02:51:51;;;;;;;6.53;4.37;;;;;;;7.60;64.73;95879.03;4987391;28;20366;-72
2024/03/12 02:54:18;;;;;;;7.03;4.80;;;;;;;7.47;64.92;95878.69;4988157;28;20735;-72
2024/03/12 02:56:43;;;;;;;7.37;4.50;;;;;;;7.56;64.88;95877.44;4988872;28;20472;-72
2024/03/12 02:59:12;;;;;;;8.80;4.27;;;;;;;7.57;64.16;95876.56;4996019;28;20463;-72
2024/03/12 03:01:38;;;;;;;5.50;5.10;;;;;;;7.59;64.51;95887.78;4987376;28;20211;-71
2024/03/12 03:04:04;;;;;;;5.10;4.70;;;;;;;7.66;63.72;95868.34;4986907;28;20423;-70
2024/03/12 03:06:29;;;;;;;5.37;4.23;;;;;;;7.60;63.78;95881.66;4987337;28;20444;-73
2024/03/12 03:08:55;;;;;;;8.50;4.80;;;;;;;7.54;63.93;95885.38;4987530;28;20240;-70
2024/03/12 03:11:20;;;;;;;8.60;5.27;;;;;;;7.50;64.48;95885.53;4986744;28;20192;-72
2024/03/12 03:13:45;;;;;;;7.97;5.30;;;;;;;7.50;64.75;95886.38;4986945;28;20848;-71
2024/03/12 03:16:11;;;;;;;8.10;4.60;;;;;;;7.43;64.15;95891.00;4986968;28;20207;-70
2024/03/12 03:18:37;;;;;;;8.43;5.43;;;;;;;7.24;65.01;95883.97;4986817;28;20176;-71
2024/03/12 03:21:02;;;;;;;8.00;6.10;;;;;;;7.30;65.32;95889.81;4986440;28;20192;-70
2024/03/12 03:23:28;;;;;;;7.73;5.07;;;;;;;7.31;64.73;95896.72;4985897;28;20204;-71
2024/03/12 03:25:53;;;;;;;5.23;4.80;;;;;;;7.31;65.42;95894.09;4986679;28;20292;-71
2024/03/12 03:28:19;;;;;;;8.40;4.77;;;;;;;7.36;64.65;95902.59;4986538;28;20205;-69
2024/03/12 03:30:44;;;;;;;8.33;4.73;;;;;;;7.31;65.26;95893.25;4986761;28;20324;-72
2024/03/12 03:33:11;;;;;;;5.10;4.60;;;;;;;7.27;65.55;95895.13;4986884;28;20180;-72
2024/03/12 03:35:37;;;;;;;5.67;4.70;;;;;;;7.20;66.20;95901.50;4987118;28;20216;-71
2024/03/12 03:38:05;;;;;;;6.27;4.53;;;;;;;7.13;66.24;95900.88;4987628;28;20409;-71
2024/03/12 03:40:33;;;;;;;4.77;4.37;;;;;;;6.93;66.40;95911.22;4987045;28;20189;-70
2024/03/12 03:42:58;;;;;;;5.10;4.60;;;;;;;7.07;66.40;95911.56;4986983;28;20415;-71
2024/03/12 03:45:24;;;;;;;5.73;5.17;;;;;;;6.99;66.20;95909.25;4987270;28;20443;-71
2024/03/12 03:47:50;;;;;;;4.60;4.20;;;;;;;7.05;65.87;95913.38;4989511;28;20476;-70
2024/03/12 03:50:15;;;;;;;4.80;4.37;;;;;;;7.03;66.40;95914.34;4988615;28;20209;-71
2024/03/12 03:52:41;;;;;;;6.37;4.70;;;;;;;7.17;65.95;95912.06;4987362;28;20508;-71
2024/03/12 03:55:09;;;;;;;6.50;4.57;;;;;;;7.21;65.78;95924.09;4987361;28;20197;-69
2024/03/12 03:57:35;;;;;;;5.53;4.93;;;;;;;7.03;65.97;95920.41;4987148;28;20172;-70
2024/03/12 04:00:01;;;;;;;6.03;4.27;;;;;;;6.76;66.79;95925.75;4986747;28;20436;-69
2024/03/12 04:02:27;;;;;;;4.93;4.43;;;;;;;7.01;66.07;95932.66;4986169;28;20188;-71
2024/03/12 04:04:52;;;;;;;6.70;5.00;;;;;;;7.10;65.58;95923.63;4990185;28;21247;-71
2024/03/12 04:07:19;;;;;;;12.30;4.97;;;;;;;7.08;66.36;95933.28;4989826;28;20231;-69
2024/03/12 04:09:45;;;;;;;7.30;5.23;;;;;;;7.02;66.00;95941.34;4989279;28;20181;-70
2024/03/12 04:12:11;;;;;;;7.13;5.47;;;;;;;7.05;65.56;95949.06;4989451;28;20442;-69
2024/03/12 04:14:36;;;;;;;8.43;5.77;;;;;;;7.12;65.88;95950.53;4989721;28;21000;-71
2024/03/12 04:17:02;;;;;;;6.67;5.53;;;;;;;7.07;65.53;95942.88;4989837;28;20177;-70
2024/03/12 04:19:33;;;;;;;9.63;6.07;;;;;;;7.06;66.15;95946.38;4989425;28;20207;-70
2024/03/12 04:21:58;;;;;;;11.23;5.80;;;;;;;6.90;66.00;95959.16;4989083;28;20284;-71
2024/03/12 04:24:27;;;;;;;5.37;4.87;;;;;;;6.72;67.01;95955.44;4988882;28;20975;-70
2024/03/12 04:26:53;;;;;;;8.60;5.60;;;;;;;6.79;66.23;95963.88;4989458;28;20200;-70
2024/03/12 04:29:18;;;;;;;5.47;4.70;;;;;;;6.88;66.42;95962.72;4989077;28;20462;-71
2024/03/12 04:31:44;;;;;;;5.13;4.60;;;;;;;6.97;65.81;95959.78;4989004;28;20256;-71
2024/03/12 04:34:09;;;;;;;7.50;4.00;;;;;;;7.08;65.33;95969.81;4988936;28;20908;-71
2024/03/12 04:36:35;;;;;;;6.10;3.50;;;;;;;6.93;65.38;95977.28;4988912;28;20267;-70
2024/03/12 04:39:17;;;;;;;4.47;4.03;;;;;;;6.76;66.30;95974.44;4988829;28;20284;-70
2024/03/12 04:41:42;;;;;;;5.10;4.13;;;;;;;6.85;66.42;95981.94;4988712;28;20179;-69
2024/03/12 04:44:08;;;;;;;11.43;4.40;;;;;;;6.78;65.80;95991.72;4988722;28;20420;-71
2024/03/12 04:46:33;;;;;;;5.43;4.07;;;;;;;6.48;67.33;95988.44;4988953;28;20331;-71
2024/03/12 04:48:58;;;;;;;5.17;4.30;;;;;;;6.60;67.10;95999.34;4988753;28;20201;-70
2024/03/12 04:51:24;;;;;;;7.77;5.10;;;;;;;6.73;66.51;96003.22;4989462;28;20204;-71
2024/03/12 04:53:50;;;;;;;5.00;4.50;;;;;;;6.89;65.77;95996.56;4989578;28;20176;-71
2024/03/12 04:56:16;;;;;;;5.37;4.87;;;;;;;6.96;66.03;95999.78;4990134;28;20216;-70
2024/03/12 04:58:41;;;;;;;4.40;3.83;;;;;;;6.90;66.21;96005.25;4989718;28;20181;-72
2024/03/12 05:01:07;;;;;;;5.43;4.90;;;;;;;6.84;66.30;96008.06;4989792;28;20432;-70
2024/03/12 05:03:32;;;;;;;5.00;3.87;;;;;;;6.85;66.09;96005.41;4989723;28;20181;-71
2024/03/12 05:05:58;;;;;;;6.97;4.47;;;;;;;6.84;66.62;96016.72;4990109;28;20288;-72
2024/03/12 05:08:23;;;;;;;5.47;4.87;;;;;;;6.86;66.60;96022.75;4990471;28;20211;-69
2024/03/12 05:10:48;;;;;;;8.70;4.63;;;;;;;6.86;66.71;96025.38;4989645;28;20194;-69
2024/03/12 05:13:14;;;;;;;5.83;4.50;;;;;;;6.85;66.49;96025.41;4990208;28;20207;-71
2024/03/12 05:15:39;;;;;;;9.37;5.33;;;;;;;6.90;66.05;96021.75;4989443;28;20198;-73
2024/03/12 05:18:05;;;;;;;5.33;4.83;;;;;;;6.73;67.20;96029.28;4989733;28;20605;-71
2024/03/12 05:20:33;;;;;;;5.93;4.97;;;;;;;6.82;67.02;96028.97;4989292;28;20181;-73
2024/03/12 05:22:58;;;;;;;7.20;5.33;;;;;;;6.73;66.95;96031.91;4988691;28;20267;-71
2024/03/12 05:25:38;;;;;;;16.17;6.20;;;;;;;6.91;66.34;96039.09;4988539;28;20511;-71
2024/03/12 05:28:08;;;;;;;8.40;4.87;;;;;;;6.95;66.22;96032.88;4988375;28;20259;-70
2024/03/12 05:30:39;;;;;;;9.30;5.33;;;;;;;6.90;66.44;96045.22;4988734;28;20523;-70
2024/03/12 05:33:09;;;;;;;8.60;6.30;;;;;;;7.03;66.11;96040.41;4988235;28;20412;-70
2024/03/12 05:35:35;;;;;;;5.80;5.30;;;;;;;7.10;66.39;96038.44;4988062;28;20463;-69
2024/03/12 05:48:50;;;;;;;5.53;4.93;;;;;;;7.00;66.31;96043.97;4967610;28;20463;-72
2024/03/12 05:51:16;;;;;;;7.90;4.93;;;;;;;7.04;66.88;96042.13;4966849;28;20429;-71
2024/03/12 05:53:42;;;;;;;7.67;5.20;;;;;;;7.08;66.40;96035.03;4966710;28;20413;-71
2024/03/12 05:56:09;;;;;;;7.30;5.17;;;;;;;7.20;65.90;96039.78;4967906;28;20758;-70
2024/03/12 05:58:35;;;;;;;9.17;6.73;;;;;;;7.22;65.92;96040.59;4966823;28;20174;-71
2024/03/12 06:01:02;;;;;;;9.50;5.80;;;;;;;6.91;67.14;96046.06;4972058;28;20442;-72
2024/03/12 06:03:28;;;;;;;6.73;5.20;;;;;;;6.86;67.38;96046.22;4985930;28;20176;-71
2024/03/12 06:05:54;;;;;;;6.23;5.60;;;;;;;7.16;66.45;96046.91;4985876;28;20440;-73
2024/03/12 06:08:21;;;;;;;7.10;5.37;;;;;;;7.08;66.45;96046.31;4988027;28;20558;-72
2024/03/12 06:10:48;;;;;;;8.83;6.33;;;;;;;7.17;66.75;96052.97;5005788;28;20189;-73
2024/03/12 06:13:13;;;;;;;8.53;5.40;;;;;;;7.04;67.14;96052.56;4966354;28;20602;-73
2024/03/12 06:15:39;;;;;;;6.63;5.30;;;;;;;7.15;66.21;96053.00;4981846;28;20507;-71
2024/03/12 06:18:04;;;;;;;5.80;4.63;;;;;;;7.12;66.46;96062.72;4981340;28;20562;-70
2024/03/12 06:20:30;;;;;;;11.00;5.80;;;;;;;7.21;66.80;96051.97;4986802;28;20243;-72
2024/03/12 06:22:57;;;;;;;11.00;5.73;;;;;;;7.19;66.50;96057.22;4982471;28;20260;-72
2024/03/12 06:25:22;;;;;;;10.80;6.03;;;;;;;7.17;66.64;96060.78;4994036;28;20438;-71
2024/03/12 06:27:49;;;;;;;7.00;5.80;;;;;;;7.20;66.50;96055.44;5004118;28;20474;-72
2024/03/12 06:30:15;;;;;;;6.97;5.63;;;;;;;7.16;66.39;96062.56;5001686;28;20180;-70
2024/03/12 06:32:41;;;;;;;8.00;5.30;;;;;;;7.30;65.71;96064.69;4999011;28;20502;-72
2024/03/12 06:35:07;;;;;;;9.80;5.20;;;;;;;7.30;66.40;96072.50;4993035;28;20467;-73
2024/03/12 06:37:33;;;;;;;7.90;5.50;;;;;;;7.27;66.74;96071.75;4989530;28;20495;-70
2024/03/12 06:39:59;;;;;;;9.00;5.37;;;;;;;7.21;65.90;96060.63;4986339;28;20500;-72
2024/03/12 06:42:26;;;;;;;6.23;5.47;;;;;;;7.17;66.13;96069.47;4984408;28;20177;-72
2024/03/12 06:44:54;;;;;;;5.17;4.73;;;;;;;7.39;66.08;96069.56;4985647;28;20193;-72
2024/03/12 06:47:21;;;;;;;7.93;5.80;;;;;;;7.18;66.86;96071.19;4985858;28;20499;-72
2024/03/12 06:49:47;;;;;;;7.50;5.43;;;;;;;7.24;66.04;96077.94;4985350;28;20420;-70
2024/03/12 06:52:14;;;;;;;5.00;3.87;;;;;;;9.20;70.77;96078.94;4984524;28;20416;-70
2024/03/12 06:54:39;;;;;;;7.13;5.17;;;;;;;7.96;64.54;96077.00;4984568;28;20411;-69
2024/03/12 06:57:06;;;;;;;7.30;4.70;;;;;;;8.13;72.67;96082.44;4984618;28;20404;-67
2024/03/12 06:59:32;;;;;;;7.87;4.87;;;;;;;7.37;66.91;96081.81;4984465;28;20663;-68
2024/03/12 07:01:58;;;;;;;13.90;6.90;;;;;;;7.62;66.82;96086.13;4984032;28;20415;-69
2024/03/12 07:04:24;;;;;;;22.70;6.40;;;;;;;7.63;66.05;96077.41;4984588;28;20173;-69
2024/03/12 07:06:54;;;;;;;9.30;4.90;;;;;;;7.62;66.11;96083.50;4984128;28;20197;-69
2024/03/12 07:09:26;;;;;;;10.90;5.60;;;;;;;7.71;65.27;96079.72;4984629;28;20618;-68
2024/03/12 07:11:58;;;;;;;7.83;5.07;;;;;;;7.68;66.42;96085.91;4984127;28;20417;-69
2024/03/12 07:14:27;;;;;;;8.17;5.93;;;;;;;7.70;66.43;96094.53;4985453;28;20412;-69
2024/03/12 07:16:53;;;;;;;9.40;4.80;;;;;;;7.75;65.43;96094.38;4984315;28;20452;-68
2024/03/12 07:19:19;;;;;;;7.60;4.37;;;;;;;7.79;65.60;96088.94;4985668;28;20412;-68
2024/03/12 07:21:45;;;;;;;8.90;5.40;;;;;;;7.80;65.80;96101.09;4985182;28;20165;-68
2024/03/12 07:24:15;;;;;;;8.40;6.20;;;;;;;7.89;65.61;96109.50;4985143;28;20424;-69
2024/03/12 07:26:40;;;;;;;8.90;7.33;;;;;;;7.89;65.52;96101.66;4984610;28;20427;-68
2024/03/12 07:29:06;;;;;;;5.20;4.70;;;;;;;8.02;65.28;96108.97;4984458;28;20471;-68
2024/03/12 07:31:35;;;;;;;8.53;6.00;;;;;;;8.20;64.87;96106.56;4985073;28;20262;-68
2024/03/12 07:34:01;;;;;;;5.83;4.73;;;;;;;8.20;64.62;96104.81;4984444;28;20424;-68
2024/03/12 07:36:34;;;;;;;6.20;5.23;;;;;;;8.09;65.39;96099.13;4984635;28;20462;-67
2024/03/12 07:39:08;;;;;;;7.23;4.20;;;;;;;8.13;65.49;96103.34;4985502;28;20432;-68
2024/03/12 07:41:34;;;;;;;5.70;5.03;;;;;;;8.18;64.69;96111.84;4986315;28;20428;-68
2024/03/12 07:44:00;;;;;;;9.20;5.40;;;;;;;8.07;65.03;96109.63;4985892;28;20430;-67
2024/03/12 07:46:25;;;;;;;10.47;6.20;;;;;;;8.00;66.28;96117.78;4986235;28;20201;-68
2024/03/12 07:48:52;;;;;;;8.37;7.03;;;;;;;7.99;65.99;96118.72;4986233;28;20208;-68
2024/03/12 07:51:18;;;;;;;6.00;5.50;;;;;;;8.05;66.02;96113.22;4986156;28;21016;-68
2024/03/12 07:53:44;;;;;;;7.40;5.80;;;;;;;7.92;66.65;96123.31;4985929;28;20445;-68
2024/03/12 07:56:11;;;;;;;5.83;5.33;;;;;;;8.09;65.80;96119.19;4985713;28;20239;-66
2024/03/12 07:58:37;;;;;;;6.27;5.50;;;;;;;8.07;66.62;96127.09;4986313;28;20419;-69
2024/03/12 08:01:03;;;;;;;8.70;5.77;;;;;;;8.03;66.86;96135.94;4985099;28;20423;-69
2024/03/12 08:03:29;;;;;;;7.87;6.43;;;;;;;7.99;67.23;96126.53;4984066;28;20181;-68
2024/03/12 08:05:54;;;;;;;8.37;6.00;;;;;;;8.07;67.00;96129.69;4983272;28;20511;-68
2024/03/12 08:08:19;;;;;;;5.90;4.87;;;;;;;8.28;66.46;96133.25;4984288;28;20279;-67
2024/03/12 08:10:45;;;;;;;10.97;6.23;;;;;;;8.34;66.41;96132.16;4982316;28;20184;-67
2024/03/12 08:13:10;;;;;;;7.73;6.03;;;;;;;8.43;65.44;96132.69;4985428;28;20263;-67
2024/03/12 08:15:37;;;;;;;7.50;5.30;;;;;;;8.45;65.82;96130.84;4985884;28;20215;-68
2024/03/12 08:18:04;;;;;;;6.63;5.13;;;;;;;8.38;65.46;96129.34;4985856;28;21003;-67
2024/03/12 08:20:29;;;;;;;7.40;6.20;;;;;;;8.64;65.86;96130.97;4985617;28;20462;-68
2024/03/12 08:22:55;;;;;;;7.13;5.40;;;;;;;8.75;65.40;96125.31;4985163;28;21141;-67
2024/03/12 08:25:20;;;;;;;7.60;5.97;;;;;;;8.95;64.45;96134.94;4985532;28;20272;-68
2024/03/12 08:27:47;;;;;;;5.63;5.00;;;;;;;8.99;64.47;96131.28;4985815;28;20207;-68
2024/03/12 08:30:13;;;;;;;9.20;5.70;;;;;;;9.05;63.82;96127.56;4985516;28;20203;-68
2024/03/12 08:32:41;;;;;;;6.40;4.63;;;;;;;9.12;63.58;96126.41;4985155;28;20499;-68
2024/03/12 08:35:09;;;;;;;6.93;5.37;;;;;;;9.10;64.30;96129.06;4985274;28;20212;-68
2024/03/12 08:37:35;;;;;;;8.07;5.00;;;;;;;9.19;64.02;96124.34;4986145;28;21293;-67
2024/03/12 08:40:00;;;;;;;5.90;5.30;;;;;;;9.35;63.57;96121.91;4988956;28;20443;-68
2024/03/12 08:42:27;;;;;;;8.07;5.40;;;;;;;9.35;63.08;96124.53;4985535;28;20183;-68
2024/03/12 08:44:54;;;;;;;7.77;5.10;;;;;;;9.44;62.90;96119.75;4985209;28;20203;-68
2024/03/12 08:47:20;;;;;;;5.70;5.07;;;;;;;9.52;62.76;96124.66;4985296;28;20412;-67
2024/03/12 08:49:45;;;;;;;7.43;5.37;;;;;;;9.73;62.21;96122.84;4987187;28;20423;-69
2024/03/12 08:52:11;;;;;;;8.73;5.10;;;;;;;9.72;62.05;96127.22;4988760;28;20617;-68
2024/03/12 08:54:37;;;;;;;5.27;4.60;;;;;;;9.76;61.59;96127.97;4988917;28;20228;-68
2024/03/12 08:57:02;;;;;;;7.93;4.70;;;;;;;9.71;61.69;96127.31;4988799;28;20184;-68
2024/03/12 08:59:29;;;;;;;5.27;4.20;;;;;;;9.57;62.63;96127.06;4988401;28;20416;-68
2024/03/12 09:01:57;;;;;;;6.93;5.00;;;;;;;9.44;62.78;96127.59;4988540;28;20181;-68
2024/03/12 09:04:23;;;;;;;8.40;5.00;;;;;;;9.41;63.14;96130.38;4988811;28;20442;-68
2024/03/12 09:06:49;;;;;;;8.10;4.73;;;;;;;9.31;62.85;96134.31;4988712;28;20454;-67
2024/03/12 09:09:15;;;;;;;5.40;4.57;;;;;;;9.50;62.69;96132.59;4989255;28;20463;-67
2024/03/12 09:11:41;;;;;;;8.80;4.37;;;;;;;9.43;63.39;96141.63;4988765;28;20196;-68
2024/03/12 09:14:07;;;;;;;8.90;4.77;;;;;;;9.49;62.84;96146.59;4988821;28;20416;-68
2024/03/12 09:16:34;;;;;;;6.07;4.60;;;;;;;9.50;63.07;96145.69;4989289;28;20193;-68
2024/03/12 09:19:00;;;;;;;8.30;4.60;;;;;;;9.41;62.84;96140.84;4988862;28;20636;-67
2024/03/12 09:21:27;;;;;;;5.90;4.63;;;;;;;9.52;62.61;96143.84;4989045;28;20423;-68
2024/03/12 09:23:53;;;;;;;6.00;4.47;;;;;;;9.52;62.31;96150.88;4988230;28;20779;-68
2024/03/12 09:26:18;;;;;;;4.40;4.00;;;;;;;9.78;61.71;96149.72;4987947;28;20446;-69
2024/03/12 09:28:44;;;;;;;9.00;5.10;;;;;;;10.61;60.07;96145.91;4988344;28;20216;-68
2024/03/12 09:31:09;;;;;;;6.47;4.10;;;;;;;10.79;58.99;96144.13;4988321;28;20192;-67
2024/03/12 09:33:36;;;;;;;4.67;4.03;;;;;;;11.29;57.39;96146.03;4988992;28;20319;-69
2024/03/12 09:36:03;;;;;;;7.53;4.83;;;;;;;11.59;55.87;96138.34;4988633;28;20212;-68
2024/03/12 09:38:29;;;;;;;9.90;5.73;;;;;;;11.46;56.06;96139.91;4988474;28;20756;-69
2024/03/12 09:40:59;;;;;;;6.30;4.50;;;;;;;11.21;57.08;96145.56;4987865;28;20416;-68
2024/03/12 09:43:29;;;;;;;9.10;5.10;;;;;;;11.11;57.61;96150.44;4987971;28;20904;-67
2024/03/12 09:45:56;;;;;;;5.40;3.87;;;;;;;10.88;57.70;96151.56;4988133;28;20436;-67
2024/03/12 09:48:21;;;;;;;4.77;4.13;;;;;;;10.93;57.44;96149.56;4987891;28;20499;-67
2024/03/12 09:50:49;;;;;;;5.20;4.13;;;;;;;10.85;57.89;96145.63;4987943;28;20431;-67
2024/03/12 09:53:15;;;;;;;3.87;3.53;;;;;;;10.83;58.26;96150.09;4987500;28;20315;-69
2024/03/12 09:55:42;;;;;;;8.83;4.73;;;;;;;10.74;59.00;96152.22;4987188;28;20524;-66
2024/03/12 09:58:08;;;;;;;4.60;3.77;;;;;;;10.57;59.05;96153.06;4987623;28;20188;-67
2024/03/12 10:00:34;;;;;;;5.90;4.27;;;;;;;10.81;58.61;96153.63;4987534;28;20424;-68
2024/03/12 10:03:00;;;;;;;10.43;4.03;;;;;;;10.86;58.52;96161.28;4987304;28;20181;-68
2024/03/12 10:05:27;;;;;;;6.90;4.60;;;;;;;10.91;58.05;96155.81;4988207;28;20440;-67
2024/03/12 10:08:16;;;;;;;5.57;3.93;;;;;;;10.80;58.38;96165.06;4990714;28;20219;-69
2024/03/12 10:10:46;;;;;;;5.03;4.53;;;;;;;10.76;58.56;96168.75;4989430;28;20511;-68
2024/03/12 10:13:17;;;;;;;6.90;4.10;;;;;;;10.59;59.64;96172.19;4988592;28;20472;-68
2024/03/12 10:15:59;;;;;;;4.13;3.73;;;;;;;10.55;57.22;96159.28;4988316;28;20811;-68
2024/03/12 10:18:27;;;;;;;2.47;1.87;;;;;;;10.53;56.35;96176.88;4987441;28;20439;-68
2024/03/12 10:20:55;;;;;;;2.50;1.80;;;;;;;10.42;56.87;96176.53;4987657;28;20420;-68
2024/03/12 10:23:23;;;;;;;2.33;1.60;;;;;;;10.27;57.22;96178.91;4987302;28;20412;-68
2024/03/12 10:25:48;;;;;;;2.00;1.80;;;;;;;10.25;58.11;96187.78;4987137;28;20509;-67
2024/03/12 10:28:16;;;;;;;2.53;1.80;;;;;;;10.21;57.06;96183.63;4988355;28;20463;-68
2024/03/12 10:30:42;;;;;;;3.10;1.93;;;;;;;10.36;57.02;96175.06;4988379;28;20177;-68
2024/03/12 10:33:20;;;;;;;2.00;1.60;;;;;;;10.23;57.59;96187.00;4988109;28;20412;-67
2024/03/12 10:35:46;;;;;;;2.90;2.43;;;;;;;10.21;57.91;96187.09;4989892;28;20505;-67
2024/03/12 10:38:32;;;;;;;2.13;1.93;;;;;;;10.19;57.98;96183.69;4993956;28;20526;-67
2024/03/12 10:41:21;;;;;;;2.90;2.03;;;;;;;10.19;58.51;96183.69;4993091;28;20423;-68
2024/03/12 10:43:54;;;;;;;3.33;2.40;;;;;;;10.48;57.36;96187.59;4994436;28;20416;-67
2024/03/12 10:46:21;;;;;;;2.30;2.00;;;;;;;10.37;57.59;96187.25;4991293;28;20432;-69
2024/03/12 10:48:47;;;;;;;4.00;2.57;;;;;;;10.40;57.89;96191.53;4996179;28;20502;-69
2024/03/12 10:51:17;;;;;;;3.80;2.30;;;;;;;10.45;57.36;96186.91;4998374;28;20418;-70
2024/03/12 10:53:46;;;;;;;6.23;2.50;;;;;;;10.69;57.21;96190.13;4996861;28;20427;-69
2024/03/12 10:56:11;;;;;;;3.80;3.03;;;;;;;10.69;56.94;96198.84;4995070;28;20431;-68
2024/03/12 10:58:37;;;;;;;3.20;2.60;;;;;;;10.46;57.44;96205.19;4999387;28;20428;-68
2024/03/12 11:01:04;;;;;;;4.20;2.57;;;;;;;10.49;57.55;96197.19;4997883;28;20220;-73
2024/03/12 11:03:31;;;;;;;3.50;3.00;;;;;;;10.48;57.58;96205.13;4999057;28;20180;-68
2024/03/12 11:05:59;;;;;;;5.10;3.10;;;;;;;10.39;58.55;96198.50;4997866;28;20455;-67
2024/03/12 11:08:25;;;;;;;6.30;3.20;;;;;;;10.42;58.16;96206.25;4986777;28;20470;-67
2024/03/12 11:10:52;;;;;;;5.13;3.37;;;;;;;10.38;58.58;96199.44;4987571;28;20446;-68
2024/03/12 11:13:20;;;;;;;11.67;3.80;;;;;;;10.43;58.64;96197.44;4986525;28;20482;-67
2024/03/12 11:15:46;;;;;;;6.47;3.47;;;;;;;10.40;58.31;96207.25;4982684;28;20543;-67
2024/03/12 11:18:13;;;;;;;4.97;3.80;;;;;;;10.50;58.12;96203.28;4986731;28;20535;-68
2024/03/12 11:20:42;;;;;;;4.83;3.60;;;;;;;10.54;58.26;96204.84;4985278;28;20260;-68
2024/03/12 11:23:07;;;;;;;4.60;3.40;;;;;;;10.55;57.79;96210.00;4988998;28;20558;-68
2024/03/12 11:25:43;;;;;;;6.03;3.60;;;;;;;10.68;57.95;96201.56;4985815;28;20563;-67
2024/03/12 11:28:15;;;;;;;5.73;4.33;;;;;;;10.63;57.74;96200.91;4983332;28;20212;-68
2024/03/12 11:30:45;;;;;;;7.03;4.03;;;;;;;10.77;57.31;96204.59;4985134;28;20420;-69
2024/03/12 11:33:40;;;;;;;6.03;4.60;;;;;;;10.87;57.37;96202.38;4984385;28;20448;-68
2024/03/12 11:36:08;;;;;;;7.40;5.07;;;;;;;10.81;57.14;96198.25;4983638;28;20467;-67
2024/03/12 11:38:34;;;;;;;5.97;4.57;;;;;;;10.74;57.14;96202.09;4985710;28;20403;-67
2024/03/12 11:41:02;;;;;;;18.80;11.43;;;;;;;10.95;56.80;96204.63;4984893;28;20447;-69
2024/03/12 11:43:39;;;;;;;4.70;4.00;;;;;;;10.89;56.48;96207.53;4986457;28;20184;-67
2024/03/12 11:46:08;;;;;;;8.87;4.47;;;;;;;10.85;56.58;96203.38;4990063;28;20451;-68
2024/03/12 11:48:36;;;;;;;9.77;5.17;;;;;;;10.87;56.75;96198.91;4989423;28;20455;-67